Time;durP1;ratioP1;P1;durP2;ratioP2;P2;SDS_P1;SDS_P2;PMS_P1;PMS_P2;Temp;Humidity;BMP_temperature;BMP_pressure;BME280_temperature;BME280_humidity;BME280_pressure;Samples;Min_cycle;Max_cycle;Signal;HPM_P1;HPM_P2
2022/08/24 00:02:53;;;;;;;0.73;0.73;;;;;;;;;;10493668;28;20214;-73
2022/08/24 00:07:54;;;;;;;0.70;0.70;;;;;;;;;;10472671;28;20274;-74
2022/08/24 00:12:56;;;;;;;0.60;0.60;;;;;;;;;;10484093;28;20210;-73
2022/08/24 00:17:57;;;;;;;0.80;0.75;;;;;;;;;;10491548;28;20644;-74
2022/08/24 00:22:58;;;;;;;0.65;0.65;;;;;;;;;;10461890;28;20303;-73
2022/08/24 00:28:00;;;;;;;0.60;0.60;;;;;;;;;;10454051;28;20796;-74
2022/08/24 00:33:01;;;;;;;0.60;0.60;;;;;;;;;;10478954;28;20226;-73
2022/08/24 00:38:02;;;;;;;0.60;0.60;;;;;;;;;;10457116;28;20209;-74
2022/08/24 00:43:05;;;;;;;0.60;0.60;;;;;;;;;;10488856;28;20709;-74
2022/08/24 00:48:11;;;;;;;0.60;0.60;;;;;;;;;;10472190;28;20305;-74
2022/08/24 00:53:15;;;;;;;1.05;0.65;;;;;;;;;;10458652;28;20210;-74
2022/08/24 00:58:19;;;;;;;0.70;0.70;;;;;;;;;;10487152;28;20217;-74
2022/08/24 01:03:20;;;;;;;0.70;0.70;;;;;;;;;;10444678;28;20261;-74
2022/08/24 01:08:22;;;;;;;0.63;0.63;;;;;;;;;;10415116;28;20226;-74
2022/08/24 01:13:24;;;;;;;3.03;0.65;;;;;;;;;;10445666;28;21996;-74
2022/08/24 01:23:47;;;;;;;0.80;0.80;;;;;;;;;;10428766;28;20214;-74
2022/08/24 01:28:50;;;;;;;0.85;0.85;;;;;;;;;;10422703;28;20232;-74
2022/08/24 01:33:54;;;;;;;0.65;0.65;;;;;;;;;;10438207;28;20206;-75
2022/08/24 01:38:57;;;;;;;0.93;0.85;;;;;;;;;;10448002;28;20226;-74
2022/08/24 01:43:58;;;;;;;0.80;0.80;;;;;;;;;;10444983;28;20218;-74
2022/08/24 01:49:01;;;;;;;0.85;0.85;;;;;;;;;;10439515;28;20494;-74
2022/08/24 01:54:03;;;;;;;1.83;0.82;;;;;;;;;;10423360;28;20714;-74
2022/08/24 01:59:05;;;;;;;0.70;0.70;;;;;;;;;;10438381;28;20485;-73
2022/08/24 02:04:06;;;;;;;1.05;0.80;;;;;;;;;;10467308;28;20689;-73
2022/08/24 02:09:08;;;;;;;0.70;0.70;;;;;;;;;;10492114;28;20240;-72
2022/08/24 02:14:09;;;;;;;1.67;0.95;;;;;;;;;;10470612;28;20217;-72
2022/08/24 02:19:10;;;;;;;0.68;0.68;;;;;;;;;;10473298;28;20313;-74
2022/08/24 02:24:12;;;;;;;1.20;0.65;;;;;;;;;;10461687;28;20236;-74
2022/08/24 02:29:13;;;;;;;0.80;0.80;;;;;;;;;;10480862;28;20221;-73
2022/08/24 02:34:14;;;;;;;0.68;0.68;;;;;;;;;;10466176;28;20202;-74
2022/08/24 02:39:15;;;;;;;2.58;0.82;;;;;;;;;;10462803;28;20255;-74
2022/08/24 02:44:20;;;;;;;1.00;0.93;;;;;;;;;;10462765;28;20367;-74
2022/08/24 02:49:22;;;;;;;0.82;0.82;;;;;;;;;;10452021;28;20264;-74
2022/08/24 02:54:25;;;;;;;1.08;1.08;;;;;;;;;;10456934;28;20202;-73
2022/08/24 02:59:26;;;;;;;0.90;0.90;;;;;;;;;;10483919;28;20209;-75
2022/08/24 03:04:28;;;;;;;1.20;1.10;;;;;;;;;;10472948;28;20229;-75
2022/08/24 03:09:29;;;;;;;0.93;0.93;;;;;;;;;;10466380;28;20217;-74
2022/08/24 03:14:34;;;;;;;1.17;1.17;;;;;;;;;;10459166;28;20220;-74
2022/08/24 03:19:35;;;;;;;1.40;0.98;;;;;;;;;;10481479;28;20218;-74
2022/08/24 03:24:36;;;;;;;1.92;1.70;;;;;;;;;;10481286;28;20377;-74
2022/08/24 03:29:37;;;;;;;1.08;1.08;;;;;;;;;;10466991;28;20259;-75
2022/08/24 03:34:38;;;;;;;1.00;1.00;;;;;;;;;;10470463;28;20212;-74
2022/08/24 03:39:40;;;;;;;1.23;1.23;;;;;;;;;;10494360;28;20679;-75
2022/08/24 03:44:42;;;;;;;1.10;1.10;;;;;;;;;;10462401;28;20224;-74
2022/08/24 03:49:43;;;;;;;1.15;1.15;;;;;;;;;;10455737;28;20241;-74
2022/08/24 03:54:44;;;;;;;1.55;1.45;;;;;;;;;;10471899;28;20235;-75
2022/08/24 03:59:45;;;;;;;1.20;1.20;;;;;;;;;;10489477;28;20222;-74
2022/08/24 04:04:47;;;;;;;1.48;1.38;;;;;;;;;;10488636;28;20243;-74
2022/08/24 04:09:49;;;;;;;1.65;1.65;;;;;;;;;;10446258;28;20241;-74
2022/08/24 04:14:56;;;;;;;1.30;1.30;;;;;;;;;;10460553;28;20212;-74
2022/08/24 04:19:59;;;;;;;1.30;1.30;;;;;;;;;;10459941;28;20217;-74
2022/08/24 04:25:04;;;;;;;1.20;1.20;;;;;;;;;;10465281;28;20206;-73
2022/08/24 04:30:05;;;;;;;1.52;1.52;;;;;;;;;;10459276;28;20222;-74
2022/08/24 04:35:16;;;;;;;2.10;2.05;;;;;;;;;;10453831;28;20644;-73
2022/08/24 04:40:17;;;;;;;1.50;1.50;;;;;;;;;;10460283;28;20185;-70
2022/08/24 04:45:21;;;;;;;1.67;1.65;;;;;;;;;;10451847;28;20261;-72
2022/08/24 04:50:23;;;;;;;1.77;1.70;;;;;;;;;;10458333;28;20209;-71
2022/08/24 04:55:25;;;;;;;2.03;1.92;;;;;;;;;;10458811;28;20223;-72
2022/08/24 05:00:27;;;;;;;1.85;1.85;;;;;;;;;;10461568;28;20296;-72
2022/08/24 05:05:28;;;;;;;1.88;1.77;;;;;;;;;;10460539;28;20232;-72
2022/08/24 05:10:29;;;;;;;2.72;2.63;;;;;;;;;;10465974;28;20237;-72
2022/08/24 05:15:30;;;;;;;2.50;2.40;;;;;;;;;;10470972;28;20313;-72
2022/08/24 05:20:31;;;;;;;2.70;2.60;;;;;;;;;;10458093;28;20248;-71
2022/08/24 05:25:32;;;;;;;3.15;2.88;;;;;;;;;;10460006;28;20218;-72
2022/08/24 05:30:33;;;;;;;3.55;3.35;;;;;;;;;;10475605;28;20713;-71
2022/08/24 05:35:39;;;;;;;2.53;2.42;;;;;;;;;;10461402;28;20214;-71
2022/08/24 05:40:41;;;;;;;3.70;3.50;;;;;;;;;;10460830;28;20216;-72
2022/08/24 05:45:43;;;;;;;3.63;3.35;;;;;;;;;;10464148;28;20688;-72
2022/08/24 05:50:51;;;;;;;4.60;3.60;;;;;;;;;;10465643;28;20222;-72
2022/08/24 05:55:53;;;;;;;4.05;3.85;;;;;;;;;;10494877;28;20218;-72
2022/08/24 06:00:54;;;;;;;4.20;3.90;;;;;;;;;;10467594;28;20301;-72
2022/08/24 06:05:55;;;;;;;3.92;3.63;;;;;;;;;;10490322;28;20228;-72
2022/08/24 06:10:56;;;;;;;4.25;3.83;;;;;;;;;;10474299;28;20230;-72
2022/08/24 06:16:04;;;;;;;4.38;4.15;;;;;;;;;;10452828;28;20261;-72
2022/08/24 06:21:09;;;;;;;4.40;4.10;;;;;;;;;;10460769;28;20234;-72
2022/08/24 06:31:44;;;;;;;4.63;4.28;;;;;;;;;;10399571;28;20254;-72
2022/08/24 06:36:46;;;;;;;3.97;3.75;;;;;;;;;;10457950;28;20218;-71
2022/08/24 06:41:47;;;;;;;4.20;3.90;;;;;;;;;;10430053;28;20710;-72
2022/08/24 06:47:02;;;;;;;3.28;3.08;;;;;;;;;;10441855;28;20339;-73
2022/08/24 06:52:05;;;;;;;3.42;3.33;;;;;;;;;;10460476;28;20221;-72
2022/08/24 06:57:06;;;;;;;3.17;3.08;;;;;;;;;;10474669;28;20218;-72
2022/08/24 07:02:08;;;;;;;3.50;3.13;;;;;;;;;;10481554;28;20213;-72
2022/08/24 07:07:09;;;;;;;3.20;3.10;;;;;;;;;;10465916;28;20221;-71
2022/08/24 07:12:12;;;;;;;2.75;2.65;;;;;;;;;;10484007;28;20221;-72
2022/08/24 07:17:13;;;;;;;2.35;2.25;;;;;;;;;;10463987;28;20218;-72
2022/08/24 07:22:14;;;;;;;2.50;2.40;;;;;;;;;;10455164;28;20750;-72
2022/08/24 07:27:17;;;;;;;2.58;2.47;;;;;;;;;;10454592;28;20206;-70
2022/08/24 07:32:19;;;;;;;2.67;2.58;;;;;;;;;;10477327;28;20218;-72
2022/08/24 07:37:20;;;;;;;2.70;2.50;;;;;;;;;;10446791;28;20213;-72
2022/08/24 07:42:23;;;;;;;3.28;2.30;;;;;;;;;;10463645;28;20210;-71
2022/08/24 07:47:24;;;;;;;3.38;3.17;;;;;;;;;;10466017;28;20232;-72
2022/08/24 07:52:26;;;;;;;2.72;2.63;;;;;;;;;;10472769;28;20287;-70
2022/08/24 07:57:28;;;;;;;2.60;2.38;;;;;;;;;;10455105;28;20723;-73
2022/08/24 08:02:30;;;;;;;2.08;1.92;;;;;;;;;;10448221;28;20218;-72
2022/08/24 08:07:31;;;;;;;3.33;2.75;;;;;;;;;;10456678;28;20223;-72
2022/08/24 08:12:34;;;;;;;2.38;2.38;;;;;;;;;;10444212;28;20218;-73
2022/08/24 08:17:38;;;;;;;2.55;2.45;;;;;;;;;;10464831;28;20213;-75
2022/08/24 08:28:35;;;;;;;2.13;2.13;;;;;;;;;;10378885;28;20210;-74
2022/08/24 08:33:36;;;;;;;2.65;2.55;;;;;;;;;;10476983;28;20265;-74
2022/08/24 08:38:39;;;;;;;2.30;2.20;;;;;;;;;;10448650;28;20280;-74
2022/08/24 08:43:51;;;;;;;2.08;2.08;;;;;;;;;;10457707;28;20214;-74
2022/08/24 08:48:55;;;;;;;2.00;2.00;;;;;;;;;;10474395;28;20276;-74
2022/08/24 08:54:09;;;;;;;2.78;1.98;;;;;;;;;;10453703;28;20232;-75
2022/08/24 08:59:11;;;;;;;1.88;1.77;;;;;;;;;;10466164;28;20628;-76
2022/08/24 09:04:18;;;;;;;1.52;1.52;;;;;;;;;;10452278;28;20279;-76
2022/08/24 09:09:43;;;;;;;1.50;1.50;;;;;;;;;;10461751;28;20211;-75
2022/08/24 09:14:53;;;;;;;3.08;1.40;;;;;;;;;;10426764;28;20225;-75
2022/08/24 09:20:07;;;;;;;1.80;1.70;;;;;;;;;;10448077;28;20262;-75
2022/08/24 09:25:12;;;;;;;1.60;1.60;;;;;;;;;;10455557;28;20222;-76
2022/08/24 09:30:22;;;;;;;1.63;1.63;;;;;;;;;;10458436;28;20758;-75
2022/08/24 09:35:49;;;;;;;1.27;1.20;;;;;;;;;;10469786;28;20175;-75
2022/08/24 09:41:00;;;;;;;1.27;1.23;;;;;;;;;;10453881;28;20210;-75
2022/08/24 09:46:25;;;;;;;1.27;1.23;;;;;;;;;;10460956;28;20214;-76
2022/08/24 09:51:32;;;;;;;1.20;1.20;;;;;;;;;;10478682;28;20217;-75
2022/08/24 09:57:05;;;;;;;1.33;1.15;;;;;;;;;;10471035;28;20355;-74
2022/08/24 10:02:19;;;;;;;0.93;0.93;;;;;;;;;;10432617;28;20222;-75
2022/08/24 10:07:26;;;;;;;0.85;0.85;;;;;;;;;;10490053;28;20226;-75
2022/08/24 10:12:46;;;;;;;0.88;0.88;;;;;;;;;;10483134;28;20339;-75
2022/08/24 10:18:08;;;;;;;0.90;0.90;;;;;;;;;;10484490;28;20226;-75
2022/08/24 10:23:29;;;;;;;0.80;0.80;;;;;;;;;;10481403;28;20707;-74
2022/08/24 10:28:44;;;;;;;1.13;1.13;;;;;;;;;;10502685;28;20222;-75
2022/08/24 10:34:01;;;;;;;1.20;1.20;;;;;;;;;;10506795;28;20271;-75
2022/08/24 10:44:48;;;;;;;0.93;0.93;;;;;;;;;;10506751;28;20337;-76
2022/08/24 10:50:02;;;;;;;0.93;0.93;;;;;;;;;;10503052;28;20582;-75
2022/08/24 10:55:16;;;;;;;0.80;0.80;;;;;;;;;;10507247;28;20774;-76
2022/08/24 11:00:19;;;;;;;0.88;0.88;;;;;;;;;;10492909;28;20229;-77
2022/08/24 11:05:30;;;;;;;1.15;1.15;;;;;;;;;;10480111;28;20265;-76
2022/08/24 11:10:33;;;;;;;1.08;1.08;;;;;;;;;;10480078;28;20257;-76
2022/08/24 11:15:40;;;;;;;0.90;0.90;;;;;;;;;;10483435;28;20217;-75
2022/08/24 11:20:43;;;;;;;1.00;1.00;;;;;;;;;;10451725;28;20770;-76
2022/08/24 11:25:56;;;;;;;0.98;0.98;;;;;;;;;;10476578;28;20221;-76
2022/08/24 11:30:58;;;;;;;0.90;0.90;;;;;;;;;;10478014;28;20721;-77
2022/08/24 11:36:00;;;;;;;0.80;0.80;;;;;;;;;;10459406;28;20229;-77
2022/08/24 11:41:18;;;;;;;1.23;1.00;;;;;;;;;;10473194;28;20225;-77
2022/08/24 11:46:19;;;;;;;1.02;1.00;;;;;;;;;;10483554;28;20538;-78
2022/08/24 11:51:34;;;;;;;0.90;0.90;;;;;;;;;;10460539;28;20222;-77
2022/08/24 11:56:40;;;;;;;0.65;0.63;;;;;;;;;;10478206;28;20332;-77
2022/08/24 12:01:51;;;;;;;0.70;0.70;;;;;;;;;;10478084;28;20222;-78
2022/08/24 12:07:12;;;;;;;0.80;0.80;;;;;;;;;;10484108;28;20698;-78
2022/08/24 12:12:20;;;;;;;0.60;0.60;;;;;;;;;;10480486;28;20260;-78
2022/08/24 12:17:32;;;;;;;0.50;0.50;;;;;;;;;;10481015;28;20237;-77
2022/08/24 12:22:33;;;;;;;0.75;0.75;;;;;;;;;;10485642;28;20267;-78
2022/08/24 12:27:37;;;;;;;0.82;0.60;;;;;;;;;;10444233;28;20218;-76
2022/08/24 12:32:39;;;;;;;0.50;0.50;;;;;;;;;;10477539;28;20328;-77
2022/08/24 12:37:42;;;;;;;0.57;0.57;;;;;;;;;;10476213;28;20244;-78
2022/08/24 12:42:47;;;;;;;0.60;0.60;;;;;;;;;;10473674;28;20283;-76
2022/08/24 12:47:52;;;;;;;0.50;0.50;;;;;;;;;;10482433;28;20271;-77
2022/08/24 12:53:11;;;;;;;0.40;0.40;;;;;;;;;;10444642;28;20219;-76
2022/08/24 12:58:33;;;;;;;0.45;0.45;;;;;;;;;;10480337;28;20221;-77
2022/08/24 13:03:34;;;;;;;0.90;0.50;;;;;;;;;;10452485;28;20221;-77
2022/08/24 13:08:39;;;;;;;0.55;0.52;;;;;;;;;;10450946;28;20253;-77
2022/08/24 13:13:48;;;;;;;0.50;0.50;;;;;;;;;;10480723;28;20677;-75
2022/08/24 13:18:52;;;;;;;0.50;0.50;;;;;;;;;;10484319;28;20229;-79
2022/08/24 13:24:12;;;;;;;0.50;0.50;;;;;;;;;;10488753;28;20210;-77
2022/08/24 13:29:14;;;;;;;0.40;0.40;;;;;;;;;;10468143;28;20688;-77
2022/08/24 13:34:16;;;;;;;0.40;0.40;;;;;;;;;;10483406;28;20245;-77
2022/08/24 13:39:35;;;;;;;0.60;0.60;;;;;;;;;;10491060;28;21153;-77
2022/08/24 13:44:55;;;;;;;0.60;0.60;;;;;;;;;;10488429;28;20210;-77
2022/08/24 13:50:07;;;;;;;0.60;0.60;;;;;;;;;;10482732;28;20350;-77
2022/08/24 13:55:22;;;;;;;0.70;0.70;;;;;;;;;;10459044;28;20243;-76
2022/08/24 14:00:29;;;;;;;0.93;0.93;;;;;;;;;;10484602;28;20245;-76
2022/08/24 14:05:30;;;;;;;1.27;0.63;;;;;;;;;;10488220;28;20997;-76
2022/08/24 14:10:37;;;;;;;0.70;0.70;;;;;;;;;;10457409;28;20685;-75
2022/08/24 14:15:48;;;;;;;0.90;0.90;;;;;;;;;;10489650;28;20214;-74
2022/08/24 14:21:08;;;;;;;1.20;1.10;;;;;;;;;;10484769;28;20217;-76
2022/08/24 14:26:27;;;;;;;1.02;1.02;;;;;;;;;;10469042;28;20221;-75
2022/08/24 14:31:28;;;;;;;2.25;1.10;;;;;;;;;;10462764;28;20237;-76
2022/08/24 14:36:42;;;;;;;0.98;0.98;;;;;;;;;;10479324;28;20251;-77
2022/08/24 14:41:49;;;;;;;0.88;0.88;;;;;;;;;;10482034;28;22294;-75
2022/08/24 14:46:59;;;;;;;1.08;1.08;;;;;;;;;;10488980;28;20810;-75
2022/08/24 14:52:00;;;;;;;1.00;1.00;;;;;;;;;;10483855;28;20354;-78
2022/08/24 14:57:16;;;;;;;1.35;1.35;;;;;;;;;;10478935;28;20711;-77
2022/08/24 15:02:29;;;;;;;1.20;1.20;;;;;;;;;;10469404;28;20213;-77
2022/08/24 15:07:31;;;;;;;1.35;1.35;;;;;;;;;;10485575;28;20248;-76
2022/08/24 15:12:42;;;;;;;1.40;1.30;;;;;;;;;;10482835;28;20254;-75
2022/08/24 15:17:59;;;;;;;1.38;1.20;;;;;;;;;;10490926;28;20209;-75
2022/08/24 15:23:06;;;;;;;1.65;1.58;;;;;;;;;;10484448;28;20233;-76
2022/08/24 15:28:10;;;;;;;1.00;1.00;;;;;;;;;;10488038;28;20214;-72
2022/08/24 15:33:15;;;;;;;1.40;1.00;;;;;;;;;;10481493;28;20221;-73
2022/08/24 15:38:16;;;;;;;1.40;1.40;;;;;;;;;;10488907;28;20210;-74
2022/08/24 15:43:17;;;;;;;1.50;1.40;;;;;;;;;;10475006;28;20749;-75
2022/08/24 15:48:22;;;;;;;1.20;1.10;;;;;;;;;;10452259;28;20645;-74
2022/08/24 15:53:23;;;;;;;1.20;1.20;;;;;;;;;;10489521;28;20218;-74
2022/08/24 15:58:34;;;;;;;1.20;1.20;;;;;;;;;;10483455;28;20209;-73
2022/08/24 16:03:42;;;;;;;1.35;1.35;;;;;;;;;;10478094;28;20252;-74
2022/08/24 16:08:56;;;;;;;2.13;1.38;;;;;;;;;;10492828;28;20215;-73
2022/08/24 16:20:06;;;;;;;1.00;1.00;;;;;;;;;;10480581;28;20687;-74
2022/08/24 16:25:14;;;;;;;1.10;1.10;;;;;;;;;;10473116;28;20227;-73
2022/08/24 16:30:45;;;;;;;0.90;0.90;;;;;;;;;;10481471;28;20308;-75
2022/08/24 16:35:46;;;;;;;1.20;1.10;;;;;;;;;;10436449;28;20697;-73
2022/08/24 16:40:47;;;;;;;1.00;1.00;;;;;;;;;;10476968;28;20217;-67
2022/08/24 16:45:48;;;;;;;0.80;0.80;;;;;;;;;;10478797;28;20656;-72
2022/08/24 16:50:50;;;;;;;0.93;0.93;;;;;;;;;;10478480;28;20240;-73
2022/08/24 16:55:52;;;;;;;1.48;1.10;;;;;;;;;;10480079;28;21285;-73
2022/08/24 17:00:53;;;;;;;0.95;0.95;;;;;;;;;;10481862;28;20587;-71
2022/08/24 17:05:55;;;;;;;1.05;1.05;;;;;;;;;;10490290;28;20221;-71
2022/08/24 17:10:56;;;;;;;1.20;0.90;;;;;;;;;;10487695;28;20233;-74
2022/08/24 17:16:16;;;;;;;0.82;0.82;;;;;;;;;;10458175;28;20300;-74
2022/08/24 17:21:17;;;;;;;0.88;0.88;;;;;;;;;;10485337;28;20226;-74
2022/08/24 17:26:19;;;;;;;1.00;1.00;;;;;;;;;;10473077;28;20815;-74
2022/08/24 17:31:20;;;;;;;1.23;0.90;;;;;;;;;;10457783;28;20214;-75
2022/08/24 17:36:22;;;;;;;1.10;1.10;;;;;;;;;;10475154;28;20218;-76
2022/08/24 17:41:24;;;;;;;1.50;1.50;;;;;;;;;;10473952;28;20805;-74
2022/08/24 17:46:26;;;;;;;1.15;1.15;;;;;;;;;;10474343;28;20291;-76
2022/08/24 17:51:27;;;;;;;0.90;0.90;;;;;;;;;;10485747;28;20275;-74
2022/08/24 17:56:36;;;;;;;1.48;1.48;;;;;;;;;;10492461;28;20217;-75
2022/08/24 18:01:37;;;;;;;1.15;0.95;;;;;;;;;;10480603;28;20240;-75
2022/08/24 18:06:39;;;;;;;1.42;1.42;;;;;;;;;;10487712;28;20709;-75
2022/08/24 18:11:40;;;;;;;1.33;1.30;;;;;;;;;;10491260;28;20255;-76
2022/08/24 18:16:41;;;;;;;1.20;1.20;;;;;;;;;;10474065;28;20214;-73
2022/08/24 18:21:42;;;;;;;1.58;1.50;;;;;;;;;;10493368;28;20322;-78
2022/08/24 18:26:43;;;;;;;1.25;1.25;;;;;;;;;;10484425;28;20325;-75
2022/08/24 18:31:44;;;;;;;1.35;1.30;;;;;;;;;;10487321;28;20221;-75
2022/08/24 18:36:45;;;;;;;1.50;1.50;;;;;;;;;;10484991;28;20229;-71
2022/08/24 18:41:47;;;;;;;1.95;1.85;;;;;;;;;;10486757;28;20807;-70
2022/08/24 18:46:48;;;;;;;1.75;1.65;;;;;;;;;;10465774;28;20210;-68
2022/08/24 18:51:49;;;;;;;1.70;1.60;;;;;;;;;;10485789;28;20688;-74
2022/08/24 18:56:51;;;;;;;1.70;1.60;;;;;;;;;;10485621;28;20213;-75
2022/08/24 19:07:12;;;;;;;2.20;2.15;;;;;;;;;;10486961;28;20237;-75
2022/08/24 19:12:14;;;;;;;1.92;1.83;;;;;;;;;;10482051;28;20217;-75
2022/08/24 19:17:15;;;;;;;1.80;1.70;;;;;;;;;;10484354;28;20206;-74
2022/08/24 19:22:16;;;;;;;1.55;1.52;;;;;;;;;;10483388;28;20229;-74
2022/08/24 19:27:18;;;;;;;2.13;2.08;;;;;;;;;;10481673;28;20202;-72
2022/08/24 19:32:21;;;;;;;1.63;1.63;;;;;;;;;;10488817;28;20291;-73
2022/08/24 19:37:22;;;;;;;1.90;1.90;;;;;;;;;;10464973;28;20352;-78
2022/08/24 19:42:24;;;;;;;1.92;1.92;;;;;;;;;;10457203;28;20210;-76
2022/08/24 19:47:25;;;;;;;2.10;2.00;;;;;;;;;;10457204;28;20221;-76
2022/08/24 19:52:31;;;;;;;2.42;2.33;;;;;;;;;;10452360;28;21171;-74
2022/08/24 19:57:32;;;;;;;2.38;2.28;;;;;;;;;;10483335;28;20661;-77
2022/08/24 20:02:33;;;;;;;2.13;2.03;;;;;;;;;;10459154;28;20355;-74
2022/08/24 20:07:34;;;;;;;2.67;2.47;;;;;;;;;;10479350;28;20251;-75
2022/08/24 20:12:36;;;;;;;2.45;2.30;;;;;;;;;;10489983;28;20222;-72
2022/08/24 20:17:37;;;;;;;2.65;2.55;;;;;;;;;;10485002;28;20229;-74
2022/08/24 20:22:38;;;;;;;2.53;2.42;;;;;;;;;;10446459;28;20213;-74
2022/08/24 20:27:40;;;;;;;3.05;2.30;;;;;;;;;;10493420;28;20252;-72
2022/08/24 20:32:41;;;;;;;2.25;2.15;;;;;;;;;;10495306;28;20225;-73
2022/08/24 20:37:42;;;;;;;2.30;2.20;;;;;;;;;;10464927;28;20696;-73
2022/08/24 20:42:43;;;;;;;2.40;2.20;;;;;;;;;;10496355;28;20212;-72
2022/08/24 20:47:49;;;;;;;1.95;1.95;;;;;;;;;;10486678;28;20248;-72
2022/08/24 20:52:50;;;;;;;2.85;2.65;;;;;;;;;;10478570;28;20749;-72
2022/08/24 20:57:53;;;;;;;2.75;2.55;;;;;;;;;;10461692;28;20209;-73
2022/08/24 21:02:54;;;;;;;2.40;2.30;;;;;;;;;;10479145;28;20209;-73
2022/08/24 21:07:56;;;;;;;2.05;2.03;;;;;;;;;;10476301;28;20225;-72
2022/08/24 21:12:58;;;;;;;2.08;1.88;;;;;;;;;;10473685;28;20717;-72
2022/08/24 21:18:00;;;;;;;1.75;1.75;;;;;;;;;;10484187;28;20263;-72
2022/08/24 21:23:02;;;;;;;1.95;1.95;;;;;;;;;;10494249;28;20225;-72
2022/08/24 21:28:04;;;;;;;1.70;1.60;;;;;;;;;;10462125;28;20217;-70
2022/08/24 21:38:24;;;;;;;2.53;1.50;;;;;;;;;;10472920;28;20237;-71
2022/08/24 21:43:26;;;;;;;2.88;1.98;;;;;;;;;;10478944;28;20303;-72
2022/08/24 21:48:27;;;;;;;2.05;1.95;;;;;;;;;;10467083;28;20213;-72
2022/08/24 21:53:28;;;;;;;2.08;1.98;;;;;;;;;;10485753;28;20676;-72
2022/08/24 21:58:29;;;;;;;1.63;1.63;;;;;;;;;;10480399;28;20709;-72
2022/08/24 22:03:31;;;;;;;1.92;1.92;;;;;;;;;;10490675;28;20237;-72
2022/08/24 22:08:33;;;;;;;2.10;2.00;;;;;;;;;;10487774;28;20209;-71
2022/08/24 22:13:34;;;;;;;1.83;1.80;;;;;;;;;;10486037;28;20216;-72
2022/08/24 22:18:35;;;;;;;2.30;2.20;;;;;;;;;;10493655;28;20213;-72
2022/08/24 22:23:37;;;;;;;3.10;2.95;;;;;;;;;;10495544;28;20408;-72
2022/08/24 22:28:40;;;;;;;2.40;2.30;;;;;;;;;;10501083;28;20274;-72
2022/08/24 22:33:41;;;;;;;3.55;2.92;;;;;;;;;;10459483;28;20221;-72
2022/08/24 22:38:43;;;;;;;2.40;2.30;;;;;;;;;;10490017;28;20793;-72
2022/08/24 22:49:04;;;;;;;2.55;2.45;;;;;;;;;;10482374;28;21059;-72
2022/08/24 22:54:06;;;;;;;2.70;2.60;;;;;;;;;;10476263;28;20248;-72
2022/08/24 22:59:08;;;;;;;2.67;2.55;;;;;;;;;;10448416;28;20305;-72
2022/08/24 23:04:11;;;;;;;2.88;2.67;;;;;;;;;;10477905;28;20244;-72
2022/08/24 23:09:12;;;;;;;2.75;2.55;;;;;;;;;;10475455;28;20213;-72
2022/08/24 23:14:14;;;;;;;3.00;2.80;;;;;;;;;;10465894;28;20216;-74
2022/08/24 23:24:36;;;;;;;3.00;2.60;;;;;;;;;;10488300;28;20286;-72
2022/08/24 23:29:38;;;;;;;3.08;2.83;;;;;;;;;;10482706;28;21180;-72
2022/08/24 23:34:39;;;;;;;3.30;3.10;;;;;;;;;;10476429;28;20210;-73
2022/08/24 23:39:41;;;;;;;2.70;2.60;;;;;;;;;;10460618;28;20750;-73
2022/08/24 23:44:42;;;;;;;3.25;2.90;;;;;;;;;;10465609;28;20225;-73
2022/08/24 23:49:43;;;;;;;3.20;2.85;;;;;;;;;;10492118;28;20312;-73
2022/08/24 23:54:44;;;;;;;2.63;2.53;;;;;;;;;;10473580;28;20226;-73
2022/08/24 23:59:45;;;;;;;4.07;3.70;;;;;;;;;;10476243;28;20263;-72
